Time;durP1;ratioP1;P1;durP2;ratioP2;P2;SDS_P1;SDS_P2;PMS_P1;PMS_P2;Temp;Humidity;BMP_temperature;BMP_pressure;BME280_temperature;BME280_humidity;BME280_pressure;Samples;Min_cycle;Max_cycle;Signal;HPM_P1;HPM_P2
2020/12/25 00:00:49;;;;;;;19.15;4.93;;;23.70;59.80;;;;;;6364549;22;20006;-71
2020/12/25 00:03:16;;;;;;;14.07;4.93;;;23.70;59.90;;;;;;6366368;22;20059;-71
2020/12/25 00:05:46;;;;;;;16.13;5.97;;;23.70;59.90;;;;;;6365446;22;20081;-71
2020/12/25 00:08:13;;;;;;;20.70;5.90;;;23.70;60.00;;;;;;6366089;22;19998;-71
2020/12/25 00:10:41;;;;;;;16.77;6.43;;;23.60;60.00;;;;;;6365814;22;20026;-71
2020/12/25 00:13:09;;;;;;;15.32;5.15;;;23.60;60.00;;;;;;6364716;22;19995;-71
2020/12/25 00:15:35;;;;;;;11.50;4.78;;;23.60;60.10;;;;;;6365972;22;19999;-71
2020/12/25 00:18:02;;;;;;;16.95;6.65;;;23.60;60.10;;;;;;6364362;22;20074;-71
2020/12/25 00:20:28;;;;;;;19.08;6.70;;;23.60;60.10;;;;;;6338307;22;20010;-71
2020/12/25 00:22:55;;;;;;;17.38;5.80;;;23.60;60.20;;;;;;6365225;22;20003;-71
2020/12/25 00:25:21;;;;;;;17.00;5.63;;;23.50;60.10;;;;;;6365744;22;19995;-71
2020/12/25 00:27:48;;;;;;;11.73;5.18;;;23.60;60.20;;;;;;6366034;22;20056;-71
2020/12/25 00:30:14;;;;;;;16.05;6.57;;;23.50;60.20;;;;;;6364821;22;20002;-71
2020/12/25 00:32:41;;;;;;;20.80;5.65;;;23.50;60.20;;;;;;6366425;22;20007;-71
2020/12/25 00:35:07;;;;;;;11.20;5.78;;;23.50;60.20;;;;;;6364813;22;19994;-71
2020/12/25 00:37:33;;;;;;;14.88;5.03;;;23.50;60.30;;;;;;6366268;22;20016;-71
2020/12/25 00:40:00;;;;;;;18.83;6.07;;;23.50;60.40;;;;;;6364630;22;20087;-70
2020/12/25 00:42:26;;;;;;;16.33;5.88;;;23.50;60.30;;;;;;6365496;22;20425;-71
2020/12/25 00:44:53;;;;;;;14.93;5.15;;;23.50;60.40;;;;;;6365431;22;20089;-71
2020/12/25 00:47:19;;;;;;;13.32;5.28;;;23.40;60.30;;;;;;6364951;22;20013;-71
2020/12/25 00:49:46;;;;;;;13.10;6.82;;;23.40;60.40;;;;;;6365865;22;20124;-71
2020/12/25 00:52:12;;;;;;;16.33;5.50;;;23.40;60.40;;;;;;6364722;22;20010;-71
2020/12/25 00:54:39;;;;;;;12.75;5.25;;;23.40;60.40;;;;;;6365876;22;20004;-71
2020/12/25 00:57:05;;;;;;;11.50;5.68;;;23.40;60.50;;;;;;6364258;22;20348;-71
2020/12/25 00:59:31;;;;;;;13.23;5.53;;;23.40;60.60;;;;;;6365886;22;20008;-71
2020/12/25 01:01:58;;;;;;;13.50;5.35;;;23.40;60.60;;;;;;6364621;22;20005;-71
2020/12/25 01:04:24;;;;;;;16.55;5.82;;;23.30;60.60;;;;;;6364915;22;20005;-71
2020/12/25 01:06:51;;;;;;;16.23;7.05;;;23.30;60.70;;;;;;6365543;22;20030;-71
2020/12/25 01:09:17;;;;;;;20.20;10.57;;;23.30;60.70;;;;;;6364969;22;20377;-71
2020/12/25 01:11:44;;;;;;;27.63;12.50;;;23.30;60.70;;;;;;6337922;22;20063;-70
2020/12/25 01:14:10;;;;;;;19.02;12.52;;;23.30;60.60;;;;;;6364690;22;20001;-71
2020/12/25 01:16:37;;;;;;;21.38;11.52;;;23.30;60.60;;;;;;6365162;22;20017;-71
2020/12/25 01:19:03;;;;;;;25.00;10.38;;;23.30;60.50;;;;;;6364717;22;19995;-71
2020/12/25 01:21:30;;;;;;;18.42;9.43;;;23.30;60.40;;;;;;6337225;22;20002;-71
2020/12/25 01:23:56;;;;;;;17.35;8.75;;;23.20;60.30;;;;;;6365957;22;19998;-71
2020/12/25 01:26:23;;;;;;;20.25;8.98;;;23.20;60.20;;;;;;6364437;22;19995;-71
2020/12/25 01:28:50;;;;;;;17.95;9.57;;;23.20;60.20;;;;;;6366148;22;20002;-71
2020/12/25 01:31:16;;;;;;;19.15;7.53;;;23.20;60.20;;;;;;6364766;22;20318;-71
2020/12/25 01:33:43;;;;;;;25.30;8.60;;;23.20;60.20;;;;;;6365473;22;20440;-70
2020/12/25 01:36:09;;;;;;;20.67;7.72;;;23.10;60.20;;;;;;6364413;22;20006;-71
2020/12/25 01:38:36;;;;;;;20.20;7.05;;;23.10;60.20;;;;;;6365440;22;20040;-71
2020/12/25 01:41:02;;;;;;;17.20;6.82;;;23.20;61.00;;;;;;6364567;22;20013;-71
2020/12/25 01:43:29;;;;;;;19.13;6.28;;;23.10;60.40;;;;;;6365105;22;20422;-71
2020/12/25 01:45:55;;;;;;;15.77;6.50;;;23.10;60.40;;;;;;6367724;22;20021;-71
2020/12/25 01:48:22;;;;;;;10.10;5.50;;;23.10;60.50;;;;;;6367005;22;20073;-70
2020/12/25 01:50:51;;;;;;;12.10;4.95;;;23.10;60.60;;;;;;6366875;22;20303;-69
2020/12/25 01:53:20;;;;;;;16.77;5.13;;;23.10;60.60;;;;;;6360646;22;20014;-71
2020/12/25 01:55:47;;;;;;;12.77;4.40;;;23.10;60.60;;;;;;6366402;22;20025;-71
2020/12/25 01:58:14;;;;;;;10.07;4.22;;;23.10;60.70;;;;;;6366420;22;20070;-71
2020/12/25 02:00:41;;;;;;;10.90;5.07;;;23.10;60.70;;;;;;6365668;22;20372;-71
2020/12/25 02:03:08;;;;;;;12.00;3.90;;;23.00;60.70;;;;;;6366683;22;20433;-71
2020/12/25 02:05:35;;;;;;;12.38;4.95;;;23.00;60.70;;;;;;6365725;22;19997;-71
2020/12/25 02:08:02;;;;;;;13.98;4.63;;;23.00;60.70;;;;;;6366931;22;19998;-71
2020/12/25 02:10:28;;;;;;;14.90;4.50;;;23.00;60.70;;;;;;6365932;22;19998;-71
2020/12/25 02:12:55;;;;;;;13.40;4.10;;;23.00;60.80;;;;;;6366176;22;19999;-71
2020/12/25 02:15:21;;;;;;;12.15;4.03;;;23.00;60.80;;;;;;6365477;22;20069;-70
2020/12/25 02:17:48;;;;;;;12.45;4.05;;;23.00;60.90;;;;;;6366409;22;20017;-71
2020/12/25 02:20:15;;;;;;;12.20;4.40;;;23.00;61.00;;;;;;6366851;22;20022;-71
2020/12/25 02:22:42;;;;;;;12.38;4.20;;;23.00;61.00;;;;;;6366196;22;20387;-71
2020/12/25 02:25:09;;;;;;;15.45;4.10;;;22.90;61.00;;;;;;6366690;22;20052;-71
2020/12/25 02:27:35;;;;;;;12.80;3.63;;;22.90;61.10;;;;;;6366039;22;19990;-71
2020/12/25 02:30:06;;;;;;;8.57;4.68;;;22.90;61.20;;;;;;6367487;22;19999;-71
2020/12/25 02:32:36;;;;;;;6.50;3.53;;;22.90;61.20;;;;;;6366176;22;19998;-71
2020/12/25 02:35:04;;;;;;;6.80;3.60;;;22.90;61.20;;;;;;6367058;22;20033;-71
2020/12/25 02:37:30;;;;;;;10.60;4.00;;;22.90;61.30;;;;;;6366139;22;20099;-71
2020/12/25 02:39:57;;;;;;;8.07;3.92;;;22.90;61.30;;;;;;6366861;22;19999;-69
2020/12/25 02:42:23;;;;;;;10.35;4.88;;;22.80;61.30;;;;;;6367243;22;20002;-72
2020/12/25 02:44:50;;;;;;;10.85;4.95;;;22.80;61.30;;;;;;6365922;22;20022;-70
2020/12/25 02:47:16;;;;;;;17.52;12.00;;;22.80;61.30;;;;;;6366031;22;20314;-70
2020/12/25 02:49:43;;;;;;;20.00;11.75;;;22.80;61.40;;;;;;6365999;22;20243;-71
2020/12/25 02:52:09;;;;;;;18.45;8.88;;;22.80;61.40;;;;;;6366984;22;20378;-70
2020/12/25 02:54:35;;;;;;;13.95;7.20;;;22.80;61.40;;;;;;6366073;22;20029;-71
2020/12/25 02:57:02;;;;;;;15.63;5.53;;;22.80;61.50;;;;;;6365884;22;20079;-70
2020/12/25 02:59:28;;;;;;;9.18;4.57;;;22.70;61.40;;;;;;6367252;22;20007;-71
2020/12/25 03:01:55;;;;;;;9.38;3.85;;;22.80;61.50;;;;;;6365750;22;20132;-71
2020/12/25 03:04:21;;;;;;;6.78;2.97;;;22.70;61.40;;;;;;6366580;22;20027;-71
2020/12/25 03:06:48;;;;;;;7.78;3.17;;;22.70;61.40;;;;;;6365230;22;20010;-71
2020/12/25 03:09:15;;;;;;;7.25;3.03;;;22.70;61.40;;;;;;6367309;22;20054;-71
2020/12/25 03:11:41;;;;;;;6.35;2.60;;;22.70;61.40;;;;;;6364794;22;20089;-72
2020/12/25 03:14:08;;;;;;;5.60;2.70;;;22.70;61.50;;;;;;6366661;22;20069;-72
2020/12/25 03:16:34;;;;;;;6.25;2.35;;;22.70;61.40;;;;;;6365943;22;20017;-71
2020/12/25 03:19:01;;;;;;;7.32;3.63;;;22.70;61.40;;;;;;6365777;22;20001;-71
2020/12/25 03:21:28;;;;;;;4.45;1.65;;;22.70;61.40;;;;;;6366072;22;20017;-71
2020/12/25 03:23:54;;;;;;;2.67;1.55;;;22.70;61.30;;;;;;6366185;22;20367;-70
2020/12/25 03:26:21;;;;;;;9.05;1.90;;;22.60;61.10;;;;;;6366238;22;20006;-70
2020/12/25 03:28:47;;;;;;;5.35;2.00;;;22.60;61.00;;;;;;6364953;22;20039;-70
2020/12/25 03:31:14;;;;;;;6.15;2.53;;;22.60;61.00;;;;;;6366167;22;20041;-70
2020/12/25 03:33:40;;;;;;;6.32;2.00;;;22.60;60.90;;;;;;6366584;22;20006;-70
2020/12/25 03:36:06;;;;;;;6.75;2.10;;;22.60;61.00;;;;;;6365858;22;20093;-71
2020/12/25 03:38:33;;;;;;;6.03;1.80;;;22.60;61.00;;;;;;6366451;22;20426;-71
2020/12/25 03:41:02;;;;;;;11.00;7.20;;;22.60;60.90;;;;;;6365611;22;20006;-71
2020/12/25 03:43:29;;;;;;;25.17;22.25;;;22.50;60.90;;;;;;6367287;22;20009;-73
2020/12/25 03:45:55;;;;;;;22.67;19.33;;;22.50;60.90;;;;;;6364478;22;20649;-71
2020/12/25 03:48:22;;;;;;;18.95;11.20;;;22.50;61.00;;;;;;6366266;22;20055;-71
2020/12/25 03:50:49;;;;;;;11.95;7.45;;;22.50;61.00;;;;;;6364881;22;20002;-71
2020/12/25 03:53:15;;;;;;;8.45;5.35;;;22.50;61.00;;;;;;6366035;22;20097;-70
2020/12/25 03:55:42;;;;;;;7.55;4.55;;;22.50;61.00;;;;;;6366361;22;20296;-70
2020/12/25 03:58:08;;;;;;;6.90;3.33;;;22.50;61.10;;;;;;6365287;22;20029;-70
2020/12/25 04:00:35;;;;;;;8.93;3.45;;;22.50;61.10;;;;;;6366346;22;19994;-70
2020/12/25 04:03:01;;;;;;;7.00;2.42;;;22.50;61.10;;;;;;6365118;22;20469;-70
2020/12/25 04:05:28;;;;;;;6.80;2.13;;;22.50;61.10;;;;;;6366251;22;20002;-70
2020/12/25 04:07:54;;;;;;;3.58;1.90;;;22.50;61.10;;;;;;6364529;22;20494;-70
2020/12/25 04:10:21;;;;;;;5.70;2.03;;;22.50;61.20;;;;;;6366236;22;20069;-70
2020/12/25 04:12:47;;;;;;;5.15;1.85;;;22.50;61.30;;;;;;6365410;22;20006;-70
2020/12/25 04:15:14;;;;;;;6.13;2.00;;;22.50;61.90;;;;;;6365230;22;19998;-70
2020/12/25 04:17:40;;;;;;;4.00;1.38;;;22.40;61.20;;;;;;6366542;22;20011;-70
2020/12/25 04:20:07;;;;;;;5.38;2.08;;;22.50;61.40;;;;;;6364810;22;20006;-72
2020/12/25 04:22:33;;;;;;;3.63;1.35;;;22.50;61.40;;;;;;6365997;22;20002;-70
2020/12/25 04:25:00;;;;;;;8.48;3.58;;;22.50;61.50;;;;;;6364720;22;20025;-70
2020/12/25 04:27:26;;;;;;;8.95;5.93;;;22.40;61.50;;;;;;6365430;22;20010;-70
2020/12/25 04:29:52;;;;;;;12.70;9.57;;;22.50;61.70;;;;;;6364741;22;19999;-70
2020/12/25 04:32:19;;;;;;;12.63;7.22;;;22.40;61.70;;;;;;6366097;22;20371;-70
2020/12/25 04:34:45;;;;;;;8.70;5.40;;;22.50;61.80;;;;;;6365977;22;20443;-70
2020/12/25 04:37:12;;;;;;;8.57;4.15;;;22.40;61.80;;;;;;6364301;22;20448;-70
2020/12/25 04:39:39;;;;;;;5.18;2.78;;;22.50;62.00;;;;;;6365969;22;20002;-72
2020/12/25 04:42:05;;;;;;;4.18;3.08;;;22.50;62.20;;;;;;6364411;22;20009;-71
2020/12/25 04:44:32;;;;;;;5.75;2.33;;;22.50;62.30;;;;;;6366181;22;20002;-71
2020/12/25 04:47:08;;;;;;;7.43;2.28;;;22.50;62.40;;;;;;6363976;22;20082;-72
2020/12/25 04:49:39;;;;;;;5.63;1.88;;;22.50;62.50;;;;;;6365014;22;20024;-72
2020/12/25 04:52:06;;;;;;;5.20;2.10;;;22.50;62.70;;;;;;6365449;22;20499;-70
2020/12/25 04:54:33;;;;;;;5.32;2.63;;;22.50;62.80;;;;;;6364052;22;19998;-72
2020/12/25 04:57:00;;;;;;;5.95;2.65;;;22.50;63.00;;;;;;6365536;22;20013;-71
2020/12/25 04:59:28;;;;;;;7.25;3.05;;;22.50;63.10;;;;;;6364782;22;20303;-71
2020/12/25 05:01:56;;;;;;;10.98;2.85;;;22.60;63.30;;;;;;6366038;22;20034;-70
2020/12/25 05:04:24;;;;;;;11.85;3.90;;;22.60;63.40;;;;;;6364130;22;20026;-71
2020/12/25 05:06:52;;;;;;;11.13;6.47;;;22.60;63.50;;;;;;6365533;22;20730;-71
2020/12/25 05:09:24;;;;;;;13.48;9.20;;;22.60;63.70;;;;;;6366508;22;19998;-73
2020/12/25 05:11:52;;;;;;;21.52;9.63;;;22.60;63.70;;;;;;6364483;22;19998;-71
2020/12/25 05:14:19;;;;;;;15.93;8.23;;;22.70;63.70;;;;;;6366221;22;20006;-72
2020/12/25 05:16:47;;;;;;;19.77;7.88;;;22.70;63.80;;;;;;6363595;22;20022;-73
2020/12/25 05:19:14;;;;;;;18.65;7.32;;;22.70;63.80;;;;;;6366904;22;19999;-74
2020/12/25 05:21:41;;;;;;;9.88;4.18;;;22.70;63.80;;;;;;6366711;22;19995;-73
2020/12/25 05:24:47;;;;;;;10.82;3.50;;;22.80;64.10;;;;;;6363503;22;20003;-74
2020/12/25 05:27:53;;;;;;;7.45;3.92;;;22.80;64.30;;;;;;6365952;22;20022;-76
2020/12/25 05:30:59;;;;;;;13.65;3.58;;;22.70;64.40;;;;;;6366137;22;20055;-75
2020/12/25 05:34:05;;;;;;;12.38;3.78;;;22.70;64.50;;;;;;6365576;22;20051;-74
2020/12/25 05:37:11;;;;;;;18.17;6.78;;;22.80;64.50;;;;;;6366112;22;20021;-74
2020/12/25 05:40:17;;;;;;;13.48;5.57;;;22.80;64.60;;;;;;6367810;22;20381;-78
2020/12/25 05:43:26;;;;;;;14.73;4.88;;;22.80;64.50;;;;;;6366952;22;20047;-80
2020/12/25 05:46:32;;;;;;;9.90;5.03;;;22.90;64.40;;;;;;6365230;22;20002;-76
2020/12/25 05:49:38;;;;;;;8.57;3.80;;;23.00;64.30;;;;;;6367951;22;19994;-75
2020/12/25 05:52:44;;;;;;;8.38;4.57;;;23.10;64.10;;;;;;6366732;22;20033;-74
2020/12/25 05:55:51;;;;;;;7.57;3.75;;;23.10;64.00;;;;;;6366002;22;20047;-77
2020/12/25 05:58:57;;;;;;;18.35;12.07;;;23.20;63.80;;;;;;6338802;22;20094;-77
2020/12/25 06:02:03;;;;;;;15.25;12.52;;;23.20;63.70;;;;;;6366129;22;20025;-77
2020/12/25 06:05:09;;;;;;;11.48;6.65;;;23.30;63.50;;;;;;6365595;22;19999;-76
2020/12/25 06:07:55;;;;;;;13.20;6.22;;;23.30;63.30;;;;;;6338879;22;20078;-75
2020/12/25 06:11:01;;;;;;;9.30;4.13;;;23.40;63.20;;;;;;6370428;22;20002;-74
2020/12/25 06:14:07;;;;;;;12.48;4.05;;;23.40;63.00;;;;;;6366603;22;20037;-71
2020/12/25 06:16:53;;;;;;;12.48;6.65;;;23.40;63.00;;;;;;6365009;22;20010;-73
2020/12/25 06:20:06;;;;;;;16.35;14.32;;;23.50;63.00;;;;;;6367018;22;20005;-72
2020/12/25 06:23:15;;;;;;;18.02;16.13;;;23.50;63.00;;;;;;6364091;22;20087;-71
2020/12/25 06:26:21;;;;;;;15.52;10.32;;;23.60;63.10;;;;;;6366463;22;19994;-76
2020/12/25 06:29:27;;;;;;;10.95;6.30;;;23.60;63.20;;;;;;6361905;22;20017;-75
2020/12/25 06:31:57;;;;;;;6.43;3.78;;;23.60;63.30;;;;;;6365323;22;20040;-74
2020/12/25 06:34:48;;;;;;;6.60;3.70;;;23.60;63.40;;;;;;6365151;22;20418;-74
2020/12/25 06:37:15;;;;;;;5.53;2.78;;;23.70;63.50;;;;;;6365643;22;20371;-77
2020/12/25 06:39:51;;;;;;;3.95;2.47;;;23.70;63.70;;;;;;6366790;22;19994;-75
2020/12/25 06:42:35;;;;;;;4.82;1.38;;;23.70;63.70;;;;;;6366054;22;20002;-76
2020/12/25 06:45:03;;;;;;;2.90;1.10;;;23.80;64.20;;;;;;6366559;22;20051;-74
2020/12/25 06:47:33;;;;;;;4.82;1.98;;;23.80;64.20;;;;;;6365691;22;20314;-75
2020/12/25 06:50:10;;;;;;;18.02;15.27;;;23.80;64.40;;;;;;6367387;22;20026;-74
2020/12/25 06:52:56;;;;;;;24.55;19.23;;;23.70;64.50;;;;;;6365924;22;20442;-76
2020/12/25 06:55:24;;;;;;;17.92;16.02;;;23.80;64.50;;;;;;6365399;22;20414;-73
2020/12/25 06:57:54;;;;;;;15.57;11.90;;;23.70;64.40;;;;;;6366632;22;20018;-75
2020/12/25 07:00:24;;;;;;;7.97;6.75;;;23.80;64.30;;;;;;6365418;22;20081;-74
2020/12/25 07:02:50;;;;;;;5.15;4.65;;;23.90;64.30;;;;;;6367122;22;20747;-75
2020/12/25 07:05:17;;;;;;;3.95;2.72;;;23.90;64.20;;;;;;6365811;22;20005;-76
2020/12/25 07:07:44;;;;;;;2.78;2.50;;;23.90;64.10;;;;;;6366546;22;20378;-76
2020/12/25 07:10:13;;;;;;;2.28;2.05;;;24.00;63.90;;;;;;6338519;22;20364;-76
2020/12/25 07:12:40;;;;;;;4.15;3.60;;;24.00;63.70;;;;;;6365831;22;19997;-76
2020/12/25 07:15:08;;;;;;;5.47;3.10;;;24.00;63.70;;;;;;6366997;22;20087;-76
2020/12/25 07:17:36;;;;;;;3.25;2.47;;;24.10;63.60;;;;;;6364999;22;20007;-76
2020/12/25 07:20:09;;;;;;;2.72;1.92;;;24.10;63.50;;;;;;6338931;22;20434;-76
2020/12/25 07:22:36;;;;;;;3.15;1.55;;;24.20;63.50;;;;;;6364867;22;20432;-77
2020/12/25 07:25:09;;;;;;;2.65;1.42;;;24.20;63.40;;;;;;6366122;22;20009;-78
2020/12/25 07:27:36;;;;;;;3.13;1.13;;;24.20;63.30;;;;;;6366353;22;19999;-77
2020/12/25 07:30:04;;;;;;;0.90;0.68;;;24.20;63.30;;;;;;6365894;22;20009;-77
2020/12/25 07:32:31;;;;;;;3.63;1.63;;;24.30;63.60;;;;;;6366365;22;19998;-76
2020/12/25 07:35:03;;;;;;;2.72;1.52;;;24.20;63.60;;;;;;6364851;22;20002;-76
2020/12/25 07:38:12;;;;;;;3.75;2.15;;;24.20;63.60;;;;;;6366245;22;20018;-74
2020/12/25 07:41:18;;;;;;;4.80;2.22;;;24.30;63.40;;;;;;6365721;22;20005;-76
2020/12/25 07:43:44;;;;;;;;;;;24.30;63.30;;;;;;6365637;22;20023;-75
2020/12/25 07:46:14;;;;;;;5.47;2.22;;;24.30;63.20;;;;;;6366901;22;19920;-76
2020/12/25 07:48:41;;;;;;;11.80;8.25;;;24.40;63.10;;;;;;6365707;22;20107;-77
2020/12/25 07:51:08;;;;;;;20.80;10.82;;;24.40;62.90;;;;;;6366006;22;19999;-77
2020/12/25 07:53:35;;;;;;;32.47;20.27;;;24.40;62.90;;;;;;6365924;22;20006;-75
2020/12/25 07:56:07;;;;;;;58.90;29.63;;;24.40;63.30;;;;;;6366119;22;20008;-81
2020/12/25 07:58:38;;;;;;;53.40;28.55;;;24.40;63.10;;;;;;6367308;22;20029;-76
2020/12/25 08:01:07;;;;;;;46.75;28.63;;;24.40;63.00;;;;;;6368439;22;20495;-78
2020/12/25 08:03:34;;;;;;;57.25;32.05;;;24.50;63.00;;;;;;6368690;22;20002;-78
2020/12/25 08:06:02;;;;;;;48.47;28.70;;;24.50;62.90;;;;;;6365841;22;20006;-76
2020/12/25 08:08:32;;;;;;;37.00;22.65;;;24.60;62.80;;;;;;6340064;22;19999;-79
2020/12/25 08:11:03;;;;;;;24.95;15.43;;;24.60;62.60;;;;;;6367155;22;20070;-80
2020/12/25 08:13:30;;;;;;;20.10;13.77;;;24.70;62.40;;;;;;6368092;22;19990;-78
2020/12/25 08:15:56;;;;;;;18.60;10.57;;;24.70;62.20;;;;;;6366632;22;20491;-81
2020/12/25 08:18:23;;;;;;;18.05;9.07;;;24.80;62.10;;;;;;6364807;22;20006;-78
2020/12/25 08:20:57;;;;;;;10.43;7.25;;;24.80;62.00;;;;;;6365547;22;20083;-77
2020/12/25 08:23:24;;;;;;;13.20;5.97;;;24.80;61.80;;;;;;6364597;22;20017;-78
2020/12/25 08:25:54;;;;;;;5.45;2.45;;;24.80;61.80;;;;;;6366235;22;20010;-76
2020/12/25 08:28:22;;;;;;;4.28;2.00;;;24.80;61.50;;;;;;6365841;22;20006;-76
2020/12/25 08:30:49;;;;;;;3.90;1.55;;;24.80;61.40;;;;;;6365767;22;19994;-76
2020/12/25 08:33:23;;;;;;;4.75;1.10;;;24.90;61.20;;;;;;6365852;22;20013;-77
2020/12/25 08:35:50;;;;;;;1.75;0.88;;;25.00;61.20;;;;;;6364514;22;20002;-77
2020/12/25 08:38:17;;;;;;;2.08;1.00;;;25.00;61.00;;;;;;6365868;22;19994;-76
2020/12/25 08:40:46;;;;;;;2.63;2.22;;;25.00;61.00;;;;;;6363800;22;20014;-76
2020/12/25 08:43:17;;;;;;;2.58;1.75;;;25.10;61.10;;;;;;6365869;22;20006;-75
2020/12/25 08:45:59;;;;;;;3.60;1.70;;;25.10;61.00;;;;;;6364928;22;20013;-73
2020/12/25 08:49:08;;;;;;;4.07;1.13;;;25.10;60.90;;;;;;6365172;22;20006;-76
2020/12/25 08:52:14;;;;;;;2.70;0.80;;;25.20;61.00;;;;;;6365656;22;20085;-74
2020/12/25 08:54:40;;;;;;;;;;;25.30;60.90;;;;;;6366504;22;20002;-78
2020/12/25 08:57:13;;;;;;;2.17;1.25;;;25.30;60.80;;;;;;6364046;22;19906;-77
2020/12/25 08:59:39;;;;;;;3.88;1.00;;;25.40;60.80;;;;;;6365227;22;20034;-75
2020/12/25 09:02:06;;;;;;;1.73;1.00;;;25.40;60.90;;;;;;6364686;22;19999;-77
2020/12/25 09:04:32;;;;;;;2.33;1.60;;;25.40;60.90;;;;;;6365707;22;20006;-71
2020/12/25 09:06:59;;;;;;;0.70;0.70;;;25.50;60.90;;;;;;6364879;22;20082;-71
2020/12/25 09:09:25;;;;;;;5.25;1.63;;;25.50;60.90;;;;;;6365905;22;20002;-74
2020/12/25 09:11:52;;;;;;;3.08;1.25;;;25.60;61.00;;;;;;6364849;22;20006;-74
2020/12/25 09:14:18;;;;;;;4.07;1.10;;;25.60;61.00;;;;;;6365501;22;20006;-75
2020/12/25 09:16:45;;;;;;;3.03;1.20;;;25.60;60.90;;;;;;6365528;22;20021;-76
2020/12/25 09:19:11;;;;;;;1.45;1.08;;;25.60;60.90;;;;;;6364265;22;20003;-75
2020/12/25 09:21:38;;;;;;;1.48;0.82;;;25.70;60.90;;;;;;6365449;22;20003;-76
2020/12/25 09:24:04;;;;;;;2.08;1.10;;;25.80;60.90;;;;;;6365024;22;20421;-76
2020/12/25 09:26:30;;;;;;;5.10;1.05;;;25.80;60.80;;;;;;6365338;22;20002;-72
2020/12/25 09:28:58;;;;;;;1.33;0.80;;;25.80;60.70;;;;;;6365038;22;20002;-76
2020/12/25 09:31:24;;;;;;;1.10;0.68;;;25.90;60.60;;;;;;6364988;22;20472;-71
2020/12/25 09:33:51;;;;;;;1.85;0.80;;;25.90;60.60;;;;;;6365443;22;20511;-77
2020/12/25 09:36:17;;;;;;;2.50;2.10;;;26.00;60.60;;;;;;6364277;22;20014;-76
2020/12/25 09:38:44;;;;;;;1.90;1.27;;;26.00;60.50;;;;;;6365363;22;20006;-78
2020/12/25 09:41:13;;;;;;;2.75;1.58;;;26.10;60.40;;;;;;6365167;22;20002;-80
2020/12/25 09:43:41;;;;;;;2.83;0.90;;;26.10;60.20;;;;;;6361051;22;19998;-76
2020/12/25 09:46:07;;;;;;;1.27;0.80;;;26.10;60.10;;;;;;6364164;22;20022;-72
2020/12/25 09:48:33;;;;;;;3.83;0.60;;;26.10;60.00;;;;;;6364383;22;20002;-76
2020/12/25 09:51:02;;;;;;;1.90;0.65;;;26.20;60.00;;;;;;6365054;22;20334;-76
2020/12/25 09:53:28;;;;;;;2.17;0.90;;;26.20;59.90;;;;;;6363356;22;20060;-74
2020/12/25 09:55:55;;;;;;;0.57;0.50;;;26.20;59.80;;;;;;6364884;22;20081;-73
2020/12/25 09:58:21;;;;;;;1.75;0.70;;;26.30;59.80;;;;;;6362929;22;20006;-77
2020/12/25 10:00:48;;;;;;;1.45;0.70;;;26.40;59.70;;;;;;6365191;22;19998;-82
2020/12/25 10:03:14;;;;;;;1.52;0.80;;;26.40;59.50;;;;;;6364021;22;20011;-84
2020/12/25 10:05:41;;;;;;;1.73;0.80;;;26.50;59.50;;;;;;6366385;22;20377;-84
2020/12/25 10:08:08;;;;;;;2.83;1.17;;;26.50;59.40;;;;;;6366604;22;20002;-80
2020/12/25 10:10:34;;;;;;;1.35;0.70;;;26.50;59.30;;;;;;6365011;22;20006;-76
2020/12/25 10:13:01;;;;;;;2.25;0.75;;;26.60;59.20;;;;;;6367095;22;20002;-83
2020/12/25 10:15:27;;;;;;;1.00;0.68;;;26.60;59.20;;;;;;6364504;22;20085;-76
2020/12/25 10:17:54;;;;;;;0.90;0.70;;;26.70;59.10;;;;;;6366594;22;20048;-76
2020/12/25 10:20:20;;;;;;;3.58;1.98;;;26.70;59.00;;;;;;6368782;22;19998;-74
2020/12/25 10:22:47;;;;;;;3.42;1.85;;;26.70;58.90;;;;;;6340742;22;20006;-79
2020/12/25 10:25:13;;;;;;;3.08;1.17;;;26.70;58.90;;;;;;6366305;22;20071;-78
2020/12/25 10:27:40;;;;;;;3.92;1.10;;;26.80;58.90;;;;;;6367774;22;20328;-82
2020/12/25 10:30:06;;;;;;;2.55;1.00;;;26.80;59.00;;;;;;6367719;22;20314;-80
2020/12/25 10:32:33;;;;;;;2.38;1.20;;;26.80;58.90;;;;;;6366074;22;20620;-80
2020/12/25 10:34:59;;;;;;;3.05;1.35;;;26.80;58.90;;;;;;6367253;22;20037;-81
2020/12/25 10:37:26;;;;;;;1.90;1.27;;;26.80;58.90;;;;;;6365383;22;20014;-80
2020/12/25 10:39:53;;;;;;;2.20;1.77;;;26.80;59.00;;;;;;6367101;22;20024;-79
2020/12/25 10:42:19;;;;;;;5.22;4.60;;;26.90;59.10;;;;;;6365830;22;19998;-80
2020/12/25 10:44:46;;;;;;;1.98;1.65;;;26.90;59.00;;;;;;6367843;22;20091;-82
2020/12/25 10:47:13;;;;;;;1.20;1.00;;;27.00;59.00;;;;;;6338804;22;20471;-81
2020/12/25 10:49:39;;;;;;;2.28;1.40;;;27.00;59.00;;;;;;6365603;22;19990;-78
2020/12/25 10:52:06;;;;;;;2.10;0.80;;;27.00;59.00;;;;;;6366507;22;20007;-80
2020/12/25 10:54:32;;;;;;;4.13;1.58;;;27.00;58.90;;;;;;6365740;22;20071;-76
2020/12/25 10:56:59;;;;;;;2.20;0.98;;;27.10;59.00;;;;;;6367827;22;20320;-77
2020/12/25 10:59:25;;;;;;;1.02;0.80;;;27.10;58.90;;;;;;6365274;22;20087;-76
2020/12/25 11:01:52;;;;;;;0.80;0.60;;;27.10;58.90;;;;;;6366703;22;19999;-79
2020/12/25 11:04:18;;;;;;;1.80;1.08;;;27.20;59.50;;;;;;6366606;22;20002;-76
2020/12/25 11:06:45;;;;;;;1.10;1.00;;;27.20;58.90;;;;;;6366500;22;20002;-74
2020/12/25 11:09:12;;;;;;;3.25;1.17;;;27.20;58.80;;;;;;6367135;22;20368;-76
2020/12/25 11:11:40;;;;;;;1.88;1.00;;;27.20;58.70;;;;;;6365254;22;20009;-76
2020/12/25 11:14:07;;;;;;;3.00;1.13;;;27.20;58.60;;;;;;6366370;22;19999;-73
2020/12/25 11:16:36;;;;;;;4.50;1.45;;;27.30;58.60;;;;;;6364807;22;20449;-76
2020/12/25 11:19:06;;;;;;;1.08;1.00;;;27.30;58.60;;;;;;6366536;22;20029;-76
2020/12/25 11:21:32;;;;;;;1.58;1.17;;;27.40;58.40;;;;;;6364466;22;19998;-76
2020/12/25 11:24:01;;;;;;;1.70;1.58;;;27.40;58.30;;;;;;6366376;22;20020;-75
2020/12/25 11:26:29;;;;;;;4.28;1.85;;;27.40;58.20;;;;;;6366789;22;20006;-76
2020/12/25 11:28:59;;;;;;;1.73;1.20;;;27.50;58.10;;;;;;6365241;22;20052;-75
2020/12/25 11:31:26;;;;;;;5.53;1.70;;;27.50;58.00;;;;;;6366336;22;20300;-75
2020/12/25 11:33:54;;;;;;;4.22;1.83;;;27.50;57.90;;;;;;6365126;22;20010;-75
2020/12/25 11:36:25;;;;;;;3.28;1.05;;;27.60;58.00;;;;;;6366432;22;20469;-76
2020/12/25 11:38:53;;;;;;;0.88;0.85;;;27.60;57.90;;;;;;6365194;22;19998;-75
2020/12/25 11:41:21;;;;;;;2.75;0.90;;;27.60;57.90;;;;;;6365675;22;20308;-75
2020/12/25 11:43:49;;;;;;;1.27;1.17;;;27.70;57.80;;;;;;6338171;22;20063;-75
2020/12/25 11:46:16;;;;;;;4.47;1.67;;;27.70;57.80;;;;;;6365281;22;20032;-75
2020/12/25 11:48:43;;;;;;;2.33;1.80;;;27.70;57.80;;;;;;6366039;22;20006;-76
2020/12/25 11:51:17;;;;;;;4.15;1.48;;;27.70;57.70;;;;;;6364852;22;19998;-75
2020/12/25 11:53:44;;;;;;;1.23;1.13;;;27.70;57.70;;;;;;6366630;22;20417;-76
2020/12/25 11:56:11;;;;;;;1.52;1.00;;;27.80;57.70;;;;;;6365505;22;20367;-76
2020/12/25 11:58:38;;;;;;;2.58;0.80;;;27.80;57.60;;;;;;6338505;22;20005;-76
2020/12/25 12:01:04;;;;;;;1.75;1.10;;;27.80;57.60;;;;;;6365878;22;20006;-76
2020/12/25 12:03:31;;;;;;;3.80;1.00;;;27.90;57.50;;;;;;6365406;22;20010;-76
2020/12/25 12:06:00;;;;;;;2.35;1.42;;;27.90;57.40;;;;;;6366039;22;20018;-75
2020/12/25 12:08:27;;;;;;;3.95;1.38;;;27.90;57.40;;;;;;6364975;22;20430;-76
2020/12/25 12:10:53;;;;;;;2.92;1.17;;;27.90;57.30;;;;;;6365944;22;20002;-76
2020/12/25 12:13:20;;;;;;;2.40;1.35;;;27.90;57.40;;;;;;6364618;22;20002;-76
2020/12/25 12:15:46;;;;;;;5.00;2.47;;;27.90;57.30;;;;;;6366705;22;20035;-76
2020/12/25 12:18:13;;;;;;;3.95;1.05;;;28.00;57.30;;;;;;6366301;22;20094;-76
2020/12/25 12:20:40;;;;;;;4.18;1.35;;;28.00;57.20;;;;;;6366290;22;20155;-76
2020/12/25 12:23:07;;;;;;;3.50;1.48;;;28.00;57.20;;;;;;6366107;22;20006;-75
2020/12/25 12:25:33;;;;;;;3.65;1.38;;;28.00;57.10;;;;;;6364870;22;20013;-76
2020/12/25 12:28:00;;;;;;;3.60;1.35;;;28.00;57.10;;;;;;6366441;22;19998;-76
2020/12/25 12:30:26;;;;;;;3.70;1.20;;;28.00;57.10;;;;;;6365316;22;20005;-76
2020/12/25 12:32:53;;;;;;;2.17;1.23;;;28.00;57.10;;;;;;6366490;22;20090;-76
2020/12/25 12:35:20;;;;;;;4.47;1.13;;;28.10;57.20;;;;;;6365034;22;20368;-76
2020/12/25 12:37:47;;;;;;;5.32;1.17;;;28.10;57.20;;;;;;6365015;22;20334;-76
2020/12/25 12:40:15;;;;;;;1.73;1.20;;;28.10;57.10;;;;;;6365458;22;20371;-76
2020/12/25 12:42:41;;;;;;;2.55;1.10;;;28.20;57.00;;;;;;6364406;22;20082;-76
2020/12/25 12:45:11;;;;;;;2.88;1.42;;;28.20;56.90;;;;;;6365763;22;20029;-76
2020/12/25 12:47:39;;;;;;;1.80;0.95;;;28.20;57.00;;;;;;6364574;22;20025;-76
2020/12/25 12:50:07;;;;;;;3.33;1.45;;;28.20;57.00;;;;;;6366318;22;20025;-76
2020/12/25 12:52:34;;;;;;;2.05;0.90;;;28.30;57.00;;;;;;6364599;22;20406;-76
2020/12/25 12:55:01;;;;;;;2.28;1.20;;;28.30;56.90;;;;;;6365354;22;20038;-75
2020/12/25 12:57:27;;;;;;;3.25;1.00;;;28.30;56.80;;;;;;6365934;22;20044;-76
2020/12/25 12:59:54;;;;;;;1.25;0.80;;;28.40;56.80;;;;;;6364502;22;20007;-76